sensor_id;sensor_type;location;lat;lon;timestamp;temperature;humidity
38118;DHT22;23928;47.562;7.508;2022-12-11T00:02:08;-2.00;99.90
38118;DHT22;23928;47.562;7.508;2022-12-11T00:04:34;-2.10;99.90
38118;DHT22;23928;47.562;7.508;2022-12-11T00:07:00;-2.10;99.90
38118;DHT22;23928;47.562;7.508;2022-12-11T00:09:25;-2.10;99.90
38118;DHT22;23928;47.562;7.508;2022-12-11T00:11:51;-2.30;99.90
38118;DHT22;23928;47.562;7.508;2022-12-11T00:14:17;-2.40;99.90
38118;DHT22;23928;47.562;7.508;2022-12-11T00:16:42;-2.50;99.90
38118;DHT22;23928;47.562;7.508;2022-12-11T00:19:08;-2.60;99.90
38118;DHT22;23928;47.562;7.508;2022-12-11T00:21:34;-2.70;99.90
38118;DHT22;23928;47.562;7.508;2022-12-11T00:24:00;-2.60;99.90
38118;DHT22;23928;47.562;7.508;2022-12-11T00:26:25;-2.70;99.90
38118;DHT22;23928;47.562;7.508;2022-12-11T00:28:53;-2.70;99.90
38118;DHT22;23928;47.562;7.508;2022-12-11T00:31:20;-2.80;99.90
38118;DHT22;23928;47.562;7.508;2022-12-11T00:33:46;-2.70;99.90
38118;DHT22;23928;47.562;7.508;2022-12-11T00:36:18;-2.70;99.90
38118;DHT22;23928;47.562;7.508;2022-12-11T00:38:44;-2.70;99.90
38118;DHT22;23928;47.562;7.508;2022-12-11T00:41:10;-2.70;99.90
38118;DHT22;23928;47.562;7.508;2022-12-11T00:43:36;-2.60;99.90
38118;DHT22;23928;47.562;7.508;2022-12-11T00:46:02;-2.60;99.90
38118;DHT22;23928;47.562;7.508;2022-12-11T00:48:27;-2.70;99.90
38118;DHT22;23928;47.562;7.508;2022-12-11T00:50:53;-2.70;99.90
38118;DHT22;23928;47.562;7.508;2022-12-11T00:53:18;-2.90;99.90
38118;DHT22;23928;47.562;7.508;2022-12-11T00:55:44;-2.80;99.90
38118;DHT22;23928;47.562;7.508;2022-12-11T00:58:10;-2.80;99.90
38118;DHT22;23928;47.562;7.508;2022-12-11T01:00:37;-2.80;99.90
38118;DHT22;23928;47.562;7.508;2022-12-11T01:03:03;-2.90;99.90
38118;DHT22;23928;47.562;7.508;2022-12-11T01:05:29;-2.90;99.90
38118;DHT22;23928;47.562;7.508;2022-12-11T01:07:55;-3.00;99.90
38118;DHT22;23928;47.562;7.508;2022-12-11T01:10:20;-3.10;99.90
38118;DHT22;23928;47.562;7.508;2022-12-11T01:15:19;-3.10;99.90
38118;DHT22;23928;47.562;7.508;2022-12-11T01:17:45;-3.10;99.90
38118;DHT22;23928;47.562;7.508;2022-12-11T01:20:11;-3.20;99.90
38118;DHT22;23928;47.562;7.508;2022-12-11T01:22:37;-3.20;99.90
38118;DHT22;23928;47.562;7.508;2022-12-11T01:25:03;-3.20;99.90
38118;DHT22;23928;47.562;7.508;2022-12-11T01:27:29;-3.20;99.90
38118;DHT22;23928;47.562;7.508;2022-12-11T01:29:55;-3.30;99.90
38118;DHT22;23928;47.562;7.508;2022-12-11T01:32:20;-3.40;99.90
38118;DHT22;23928;47.562;7.508;2022-12-11T01:34:46;-3.40;99.90
38118;DHT22;23928;47.562;7.508;2022-12-11T01:37:12;-3.40;99.90
38118;DHT22;23928;47.562;7.508;2022-12-11T01:39:37;-3.40;99.90
38118;DHT22;23928;47.562;7.508;2022-12-11T01:42:04;-3.50;99.90
38118;DHT22;23928;47.562;7.508;2022-12-11T01:47:00;-3.50;99.90
38118;DHT22;23928;47.562;7.508;2022-12-11T01:49:26;-3.50;99.90
38118;DHT22;23928;47.562;7.508;2022-12-11T01:52:07;-3.50;99.90
38118;DHT22;23928;47.562;7.508;2022-12-11T01:54:34;-3.60;99.90
38118;DHT22;23928;47.562;7.508;2022-12-11T01:57:05;-3.60;99.90
38118;DHT22;23928;47.562;7.508;2022-12-11T01:59:35;-3.50;99.90
38118;DHT22;23928;47.562;7.508;2022-12-11T02:02:09;-3.50;99.90
38118;DHT22;23928;47.562;7.508;2022-12-11T02:04:37;-3.60;99.90
38118;DHT22;23928;47.562;7.508;2022-12-11T02:07:04;-3.60;99.90
38118;DHT22;23928;47.562;7.508;2022-12-11T02:09:32;-3.70;99.90
38118;DHT22;23928;47.562;7.508;2022-12-11T02:15:02;-3.70;99.90
38118;DHT22;23928;47.562;7.508;2022-12-11T02:17:37;-3.70;99.90
38118;DHT22;23928;47.562;7.508;2022-12-11T02:20:21;-3.80;99.90
38118;DHT22;23928;47.562;7.508;2022-12-11T02:34:16;-3.90;99.90
38118;DHT22;23928;47.562;7.508;2022-12-11T02:36:48;-3.90;99.90
38118;DHT22;23928;47.562;7.508;2022-12-11T02:39:17;-4.00;99.90
38118;DHT22;23928;47.562;7.508;2022-12-11T02:41:47;-4.10;99.90
38118;DHT22;23928;47.562;7.508;2022-12-11T02:44:15;-4.30;99.90
38118;DHT22;23928;47.562;7.508;2022-12-11T02:46:43;-4.30;99.90
38118;DHT22;23928;47.562;7.508;2022-12-11T02:49:10;-4.30;99.90
38118;DHT22;23928;47.562;7.508;2022-12-11T02:51:39;-4.30;99.90
38118;DHT22;23928;47.562;7.508;2022-12-11T02:54:09;-4.20;99.90
38118;DHT22;23928;47.562;7.508;2022-12-11T02:56:47;-4.20;99.90
38118;DHT22;23928;47.562;7.508;2022-12-11T02:59:19;-4.10;99.90
38118;DHT22;23928;47.562;7.508;2022-12-11T03:01:46;-4.10;99.90
38118;DHT22;23928;47.562;7.508;2022-12-11T03:04:12;-4.40;99.90
38118;DHT22;23928;47.562;7.508;2022-12-11T03:06:44;-4.10;99.90
38118;DHT22;23928;47.562;7.508;2022-12-11T03:09:11;-3.80;99.90
38118;DHT22;23928;47.562;7.508;2022-12-11T03:11:36;-3.70;99.90
38118;DHT22;23928;47.562;7.508;2022-12-11T03:14:03;-3.50;99.90
38118;DHT22;23928;47.562;7.508;2022-12-11T03:16:41;-3.40;99.90
38118;DHT22;23928;47.562;7.508;2022-12-11T03:22:36;-3.10;99.90
38118;DHT22;23928;47.562;7.508;2022-12-11T03:25:08;-3.10;99.90
38118;DHT22;23928;47.562;7.508;2022-12-11T03:27:55;-3.10;99.90
38118;DHT22;23928;47.562;7.508;2022-12-11T03:30:23;-2.90;99.90
38118;DHT22;23928;47.562;7.508;2022-12-11T03:32:55;-2.80;99.90
38118;DHT22;23928;47.562;7.508;2022-12-11T03:35:28;-2.80;99.90
38118;DHT22;23928;47.562;7.508;2022-12-11T03:37:57;-2.70;99.90
38118;DHT22;23928;47.562;7.508;2022-12-11T03:40:25;-2.80;99.90
38118;DHT22;23928;47.562;7.508;2022-12-11T03:42:54;-2.70;99.90
38118;DHT22;23928;47.562;7.508;2022-12-11T03:45:21;-2.80;99.90
38118;DHT22;23928;47.562;7.508;2022-12-11T03:47:49;-2.70;99.90
38118;DHT22;23928;47.562;7.508;2022-12-11T03:50:17;-2.80;99.90
38118;DHT22;23928;47.562;7.508;2022-12-11T03:52:45;-2.90;99.90
38118;DHT22;23928;47.562;7.508;2022-12-11T03:55:13;-2.80;99.90
38118;DHT22;23928;47.562;7.508;2022-12-11T03:57:40;-2.80;99.90
38118;DHT22;23928;47.562;7.508;2022-12-11T04:00:16;-2.80;99.90
38118;DHT22;23928;47.562;7.508;2022-12-11T04:02:43;-2.70;99.90
38118;DHT22;23928;47.562;7.508;2022-12-11T04:05:10;-3.00;99.90
38118;DHT22;23928;47.562;7.508;2022-12-11T04:07:36;-3.10;99.90
38118;DHT22;23928;47.562;7.508;2022-12-11T04:10:03;-3.20;99.90
38118;DHT22;23928;47.562;7.508;2022-12-11T04:12:29;-3.10;99.90
38118;DHT22;23928;47.562;7.508;2022-12-11T04:14:55;-3.00;99.90
38118;DHT22;23928;47.562;7.508;2022-12-11T04:17:31;-2.80;99.90
38118;DHT22;23928;47.562;7.508;2022-12-11T04:20:16;-2.80;99.90
38118;DHT22;23928;47.562;7.508;2022-12-11T04:23:03;-2.70;99.90
38118;DHT22;23928;47.562;7.508;2022-12-11T04:25:47;-2.50;99.90
38118;DHT22;23928;47.562;7.508;2022-12-11T04:28:13;-2.40;99.90
38118;DHT22;23928;47.562;7.508;2022-12-11T04:30:38;-2.40;99.90
38118;DHT22;23928;47.562;7.508;2022-12-11T04:33:04;-2.40;99.90
38118;DHT22;23928;47.562;7.508;2022-12-11T04:35:30;-2.60;99.90
38118;DHT22;23928;47.562;7.508;2022-12-11T04:37:56;-2.50;99.90
38118;DHT22;23928;47.562;7.508;2022-12-11T04:40:22;-2.40;99.90
38118;DHT22;23928;47.562;7.508;2022-12-11T04:42:47;-2.40;99.90
38118;DHT22;23928;47.562;7.508;2022-12-11T04:45:13;-2.30;99.90
38118;DHT22;23928;47.562;7.508;2022-12-11T04:47:39;-2.30;99.90
38118;DHT22;23928;47.562;7.508;2022-12-11T04:50:07;-2.40;99.90
38118;DHT22;23928;47.562;7.508;2022-12-11T04:52:33;-2.40;99.90
38118;DHT22;23928;47.562;7.508;2022-12-11T04:54:59;-2.40;99.90
38118;DHT22;23928;47.562;7.508;2022-12-11T04:57:24;-2.40;99.90
38118;DHT22;23928;47.562;7.508;2022-12-11T04:59:50;-2.40;99.90
38118;DHT22;23928;47.562;7.508;2022-12-11T05:02:15;-2.30;99.90
38118;DHT22;23928;47.562;7.508;2022-12-11T05:04:41;-2.30;99.90
38118;DHT22;23928;47.562;7.508;2022-12-11T05:07:07;-2.40;99.90
38118;DHT22;23928;47.562;7.508;2022-12-11T05:09:36;-2.30;99.90
38118;DHT22;23928;47.562;7.508;2022-12-11T05:12:02;-2.30;99.90
38118;DHT22;23928;47.562;7.508;2022-12-11T05:14:28;-2.20;99.90
38118;DHT22;23928;47.562;7.508;2022-12-11T05:16:57;-2.30;99.90
38118;DHT22;23928;47.562;7.508;2022-12-11T05:19:23;-2.30;99.90
38118;DHT22;23928;47.562;7.508;2022-12-11T05:21:49;-2.30;99.90
38118;DHT22;23928;47.562;7.508;2022-12-11T05:24:14;-2.20;99.90
38118;DHT22;23928;47.562;7.508;2022-12-11T05:26:40;-2.10;99.90
38118;DHT22;23928;47.562;7.508;2022-12-11T05:29:06;-2.20;99.90
38118;DHT22;23928;47.562;7.508;2022-12-11T05:31:31;-2.20;99.90
38118;DHT22;23928;47.562;7.508;2022-12-11T05:33:57;-2.10;99.90
38118;DHT22;23928;47.562;7.508;2022-12-11T05:36:29;-2.00;99.90
38118;DHT22;23928;47.562;7.508;2022-12-11T05:38:55;-2.00;99.90
38118;DHT22;23928;47.562;7.508;2022-12-11T05:41:24;-2.10;99.90
38118;DHT22;23928;47.562;7.508;2022-12-11T05:43:50;-2.00;99.90
38118;DHT22;23928;47.562;7.508;2022-12-11T05:46:21;-2.00;99.90
38118;DHT22;23928;47.562;7.508;2022-12-11T05:48:50;-2.00;99.90
38118;DHT22;23928;47.562;7.508;2022-12-11T05:51:17;-2.00;99.90
38118;DHT22;23928;47.562;7.508;2022-12-11T05:53:44;-2.10;99.90
38118;DHT22;23928;47.562;7.508;2022-12-11T05:56:13;-2.10;99.90
38118;DHT22;23928;47.562;7.508;2022-12-11T05:58:40;-2.00;99.90
38118;DHT22;23928;47.562;7.508;2022-12-11T06:01:09;-1.90;99.90
38118;DHT22;23928;47.562;7.508;2022-12-11T06:03:35;-2.00;99.90
38118;DHT22;23928;47.562;7.508;2022-12-11T06:06:02;-2.00;99.90
38118;DHT22;23928;47.562;7.508;2022-12-11T06:08:29;-2.00;99.90
38118;DHT22;23928;47.562;7.508;2022-12-11T06:10:54;-2.00;99.90
38118;DHT22;23928;47.562;7.508;2022-12-11T06:13:20;-2.00;99.90
38118;DHT22;23928;47.562;7.508;2022-12-11T06:15:46;-1.90;99.90
38118;DHT22;23928;47.562;7.508;2022-12-11T06:18:11;-1.90;99.90
38118;DHT22;23928;47.562;7.508;2022-12-11T06:20:37;-1.90;99.90
38118;DHT22;23928;47.562;7.508;2022-12-11T06:23:03;-1.90;99.90
38118;DHT22;23928;47.562;7.508;2022-12-11T06:25:29;-1.90;99.90
38118;DHT22;23928;47.562;7.508;2022-12-11T06:27:55;-1.90;99.90
38118;DHT22;23928;47.562;7.508;2022-12-11T06:30:21;-1.90;99.90
38118;DHT22;23928;47.562;7.508;2022-12-11T06:32:47;-1.90;99.90
38118;DHT22;23928;47.562;7.508;2022-12-11T06:35:12;-1.80;99.90
38118;DHT22;23928;47.562;7.508;2022-12-11T06:37:38;-1.90;99.90
38118;DHT22;23928;47.562;7.508;2022-12-11T06:40:06;-1.80;99.90
38118;DHT22;23928;47.562;7.508;2022-12-11T06:42:31;-1.90;99.90
38118;DHT22;23928;47.562;7.508;2022-12-11T06:44:58;-1.80;99.90
38118;DHT22;23928;47.562;7.508;2022-12-11T06:47:30;-1.90;99.90
38118;DHT22;23928;47.562;7.508;2022-12-11T06:49:57;-1.80;99.90
38118;DHT22;23928;47.562;7.508;2022-12-11T06:52:24;-1.80;99.90
38118;DHT22;23928;47.562;7.508;2022-12-11T06:54:50;-1.70;99.90
38118;DHT22;23928;47.562;7.508;2022-12-11T06:57:16;-1.60;99.90
38118;DHT22;23928;47.562;7.508;2022-12-11T06:59:42;-1.70;99.90
38118;DHT22;23928;47.562;7.508;2022-12-11T07:02:15;-1.70;99.90
38118;DHT22;23928;47.562;7.508;2022-12-11T07:04:42;-1.90;99.90
38118;DHT22;23928;47.562;7.508;2022-12-11T07:07:08;-1.80;99.90
38118;DHT22;23928;47.562;7.508;2022-12-11T07:09:36;-1.70;99.90
38118;DHT22;23928;47.562;7.508;2022-12-11T07:12:02;-1.80;99.90
38118;DHT22;23928;47.562;7.508;2022-12-11T07:14:29;-1.70;99.90
38118;DHT22;23928;47.562;7.508;2022-12-11T07:16:55;-1.70;99.90
38118;DHT22;23928;47.562;7.508;2022-12-11T07:19:21;-1.70;99.90
38118;DHT22;23928;47.562;7.508;2022-12-11T07:21:47;-1.60;99.90
38118;DHT22;23928;47.562;7.508;2022-12-11T07:24:12;-1.50;99.90
38118;DHT22;23928;47.562;7.508;2022-12-11T07:26:38;-1.90;99.90
38118;DHT22;23928;47.562;7.508;2022-12-11T07:29:03;-1.90;99.90
38118;DHT22;23928;47.562;7.508;2022-12-11T07:31:29;-2.10;99.90
38118;DHT22;23928;47.562;7.508;2022-12-11T07:33:56;-2.30;99.90
38118;DHT22;23928;47.562;7.508;2022-12-11T07:36:23;-2.30;99.90
38118;DHT22;23928;47.562;7.508;2022-12-11T07:38:49;-1.90;99.90
38118;DHT22;23928;47.562;7.508;2022-12-11T07:41:15;-2.10;99.90
38118;DHT22;23928;47.562;7.508;2022-12-11T07:43:42;-2.00;99.90
38118;DHT22;23928;47.562;7.508;2022-12-11T07:46:17;-2.40;99.90
38118;DHT22;23928;47.562;7.508;2022-12-11T07:48:44;-2.50;99.90
38118;DHT22;23928;47.562;7.508;2022-12-11T07:51:25;-2.20;99.90
38118;DHT22;23928;47.562;7.508;2022-12-11T07:54:04;-2.20;99.90
38118;DHT22;23928;47.562;7.508;2022-12-11T07:56:31;-2.00;99.90
38118;DHT22;23928;47.562;7.508;2022-12-11T07:59:01;-1.90;99.90
38118;DHT22;23928;47.562;7.508;2022-12-11T08:01:29;-2.00;99.90
38118;DHT22;23928;47.562;7.508;2022-12-11T08:03:56;-2.00;99.90
38118;DHT22;23928;47.562;7.508;2022-12-11T08:06:27;-2.10;99.90
38118;DHT22;23928;47.562;7.508;2022-12-11T08:08:54;-2.20;99.90
38118;DHT22;23928;47.562;7.508;2022-12-11T08:11:20;-2.00;99.90
38118;DHT22;23928;47.562;7.508;2022-12-11T08:13:46;-2.20;99.90
38118;DHT22;23928;47.562;7.508;2022-12-11T08:16:13;-2.40;99.90
38118;DHT22;23928;47.562;7.508;2022-12-11T08:18:40;-2.10;99.90
38118;DHT22;23928;47.562;7.508;2022-12-11T08:21:06;-2.00;99.90
38118;DHT22;23928;47.562;7.508;2022-12-11T08:23:32;-2.10;99.90
38118;DHT22;23928;47.562;7.508;2022-12-11T08:25:58;-2.00;99.90
38118;DHT22;23928;47.562;7.508;2022-12-11T08:28:23;-1.70;99.90
38118;DHT22;23928;47.562;7.508;2022-12-11T08:30:49;-1.80;99.90
38118;DHT22;23928;47.562;7.508;2022-12-11T08:33:14;-2.00;99.90
38118;DHT22;23928;47.562;7.508;2022-12-11T08:35:40;-1.80;99.90
38118;DHT22;23928;47.562;7.508;2022-12-11T08:38:08;-1.70;99.90
38118;DHT22;23928;47.562;7.508;2022-12-11T08:40:33;-1.50;99.90
38118;DHT22;23928;47.562;7.508;2022-12-11T08:42:59;-1.70;99.90
38118;DHT22;23928;47.562;7.508;2022-12-11T08:45:24;-1.60;99.90
38118;DHT22;23928;47.562;7.508;2022-12-11T08:47:51;-1.60;99.90
38118;DHT22;23928;47.562;7.508;2022-12-11T08:50:18;-1.50;99.90
38118;DHT22;23928;47.562;7.508;2022-12-11T08:52:44;-1.40;99.90
38118;DHT22;23928;47.562;7.508;2022-12-11T08:55:09;-1.20;99.90
38118;DHT22;23928;47.562;7.508;2022-12-11T08:57:35;-1.20;99.90
38118;DHT22;23928;47.562;7.508;2022-12-11T09:00:00;-1.40;99.90
38118;DHT22;23928;47.562;7.508;2022-12-11T09:02:26;-1.50;99.90
38118;DHT22;23928;47.562;7.508;2022-12-11T09:04:52;-1.50;99.90
38118;DHT22;23928;47.562;7.508;2022-12-11T09:07:17;-1.10;99.90
38118;DHT22;23928;47.562;7.508;2022-12-11T09:09:43;-1.00;99.90
38118;DHT22;23928;47.562;7.508;2022-12-11T09:12:08;-1.00;99.90
38118;DHT22;23928;47.562;7.508;2022-12-11T09:14:34;-1.10;99.90
38118;DHT22;23928;47.562;7.508;2022-12-11T09:17:00;-1.20;99.90
38118;DHT22;23928;47.562;7.508;2022-12-11T09:19:25;-1.10;99.90
38118;DHT22;23928;47.562;7.508;2022-12-11T09:21:51;-0.80;99.90
38118;DHT22;23928;47.562;7.508;2022-12-11T09:24:16;-0.80;99.90
38118;DHT22;23928;47.562;7.508;2022-12-11T09:26:42;-1.20;99.90
38118;DHT22;23928;47.562;7.508;2022-12-11T09:29:08;-0.90;99.90
38118;DHT22;23928;47.562;7.508;2022-12-11T09:31:35;-0.80;99.90
38118;DHT22;23928;47.562;7.508;2022-12-11T09:34:04;-1.20;99.90
38118;DHT22;23928;47.562;7.508;2022-12-11T09:36:31;-1.50;99.90
38118;DHT22;23928;47.562;7.508;2022-12-11T09:39:05;-1.40;99.90
38118;DHT22;23928;47.562;7.508;2022-12-11T09:47:00;-1.60;99.90
38118;DHT22;23928;47.562;7.508;2022-12-11T09:52:13;-0.70;99.90
38118;DHT22;23928;47.562;7.508;2022-12-11T09:57:37;-0.50;99.90
38118;DHT22;23928;47.562;7.508;2022-12-11T10:00:20;-0.40;99.90
38118;DHT22;23928;47.562;7.508;2022-12-11T10:08:47;-0.10;99.90
38118;DHT22;23928;47.562;7.508;2022-12-11T10:16:47;-0.10;99.90
38118;DHT22;23928;47.562;7.508;2022-12-11T10:19:19;-0.30;99.90
38118;DHT22;23928;47.562;7.508;2022-12-11T10:21:47;-0.30;99.90
38118;DHT22;23928;47.562;7.508;2022-12-11T10:24:39;-0.30;99.90
38118;DHT22;23928;47.562;7.508;2022-12-11T10:27:32;-0.60;99.90
38118;DHT22;23928;47.562;7.508;2022-12-11T10:30:17;-0.30;99.90
38118;DHT22;23928;47.562;7.508;2022-12-11T10:35:59;-0.10;99.90
38118;DHT22;23928;47.562;7.508;2022-12-11T10:38:30;0.10;99.90
38118;DHT22;23928;47.562;7.508;2022-12-11T10:40:59;0.00;99.90
38118;DHT22;23928;47.562;7.508;2022-12-11T10:43:35;0.10;99.90
38118;DHT22;23928;47.562;7.508;2022-12-11T10:46:01;0.10;99.90
38118;DHT22;23928;47.562;7.508;2022-12-11T10:48:27;0.00;99.90
38118;DHT22;23928;47.562;7.508;2022-12-11T10:50:59;0.20;99.90
38118;DHT22;23928;47.562;7.508;2022-12-11T10:53:25;0.40;99.90
38118;DHT22;23928;47.562;7.508;2022-12-11T10:55:51;0.30;99.90
38118;DHT22;23928;47.562;7.508;2022-12-11T10:58:24;0.00;99.90
38118;DHT22;23928;47.562;7.508;2022-12-11T11:03:31;0.40;99.90
38118;DHT22;23928;47.562;7.508;2022-12-11T11:06:16;0.50;99.90
38118;DHT22;23928;47.562;7.508;2022-12-11T11:08:44;0.40;99.90
38118;DHT22;23928;47.562;7.508;2022-12-11T11:11:32;0.60;99.90
38118;DHT22;23928;47.562;7.508;2022-12-11T11:14:11;0.90;99.90
38118;DHT22;23928;47.562;7.508;2022-12-11T11:16:38;1.10;99.90
38118;DHT22;23928;47.562;7.508;2022-12-11T11:19:05;1.30;99.90
38118;DHT22;23928;47.562;7.508;2022-12-11T11:21:33;1.30;99.90
38118;DHT22;23928;47.562;7.508;2022-12-11T11:23:59;1.00;99.90
38118;DHT22;23928;47.562;7.508;2022-12-11T11:26:25;1.10;99.90
38118;DHT22;23928;47.562;7.508;2022-12-11T11:28:56;1.00;99.90
38118;DHT22;23928;47.562;7.508;2022-12-11T11:31:31;1.20;99.90
38118;DHT22;23928;47.562;7.508;2022-12-11T11:34:00;1.30;99.90
38118;DHT22;23928;47.562;7.508;2022-12-11T11:36:31;1.10;99.90
38118;DHT22;23928;47.562;7.508;2022-12-11T11:39:22;1.20;99.90
38118;DHT22;23928;47.562;7.508;2022-12-11T11:45:04;0.90;99.90
38118;DHT22;23928;47.562;7.508;2022-12-11T11:47:37;0.70;99.90
38118;DHT22;23928;47.562;7.508;2022-12-11T11:50:15;0.40;99.90
38118;DHT22;23928;47.562;7.508;2022-12-11T11:56:05;0.50;99.90
38118;DHT22;23928;47.562;7.508;2022-12-11T11:58:40;0.60;99.90
38118;DHT22;23928;47.562;7.508;2022-12-11T12:01:15;0.60;99.90
38118;DHT22;23928;47.562;7.508;2022-12-11T12:03:42;0.60;99.90
38118;DHT22;23928;47.562;7.508;2022-12-11T12:16:44;0.30;99.90
38118;DHT22;23928;47.562;7.508;2022-12-11T12:21:51;0.40;99.90
38118;DHT22;23928;47.562;7.508;2022-12-11T12:30:03;0.00;99.90
38118;DHT22;23928;47.562;7.508;2022-12-11T12:35:34;-0.20;99.90
38118;DHT22;23928;47.562;7.508;2022-12-11T12:38:13;-0.30;99.90
38118;DHT22;23928;47.562;7.508;2022-12-11T12:48:51;-0.80;99.90
38118;DHT22;23928;47.562;7.508;2022-12-11T12:51:19;-1.00;99.90
38118;DHT22;23928;47.562;7.508;2022-12-11T12:54:05;-0.80;99.90
38118;DHT22;23928;47.562;7.508;2022-12-11T12:56:35;-0.90;99.90
38118;DHT22;23928;47.562;7.508;2022-12-11T12:59:01;-1.00;99.90
38118;DHT22;23928;47.562;7.508;2022-12-11T13:01:28;-0.80;99.90
38118;DHT22;23928;47.562;7.508;2022-12-11T13:04:05;-0.60;99.90
38118;DHT22;23928;47.562;7.508;2022-12-11T13:06:40;-0.70;99.90
38118;DHT22;23928;47.562;7.508;2022-12-11T13:11:41;-0.60;99.90
38118;DHT22;23928;47.562;7.508;2022-12-11T13:14:22;-0.40;99.90
38118;DHT22;23928;47.562;7.508;2022-12-11T13:17:25;-0.60;99.90
38118;DHT22;23928;47.562;7.508;2022-12-11T13:19:50;-0.80;99.90
38118;DHT22;23928;47.562;7.508;2022-12-11T13:22:23;-0.80;99.90
38118;DHT22;23928;47.562;7.508;2022-12-11T13:35:21;-1.20;99.90
38118;DHT22;23928;47.562;7.508;2022-12-11T13:37:49;-1.50;99.90
38118;DHT22;23928;47.562;7.508;2022-12-11T13:40:23;-1.30;99.90
38118;DHT22;23928;47.562;7.508;2022-12-11T13:43:03;-1.40;99.90
38118;DHT22;23928;47.562;7.508;2022-12-11T13:45:43;-1.40;99.90
38118;DHT22;23928;47.562;7.508;2022-12-11T13:48:32;-1.40;99.90
38118;DHT22;23928;47.562;7.508;2022-12-11T13:50:59;-1.30;99.90
38118;DHT22;23928;47.562;7.508;2022-12-11T13:53:26;-1.20;99.90
38118;DHT22;23928;47.562;7.508;2022-12-11T13:56:03;-1.00;99.90
38118;DHT22;23928;47.562;7.508;2022-12-11T13:58:33;-1.10;99.90
38118;DHT22;23928;47.562;7.508;2022-12-11T14:01:15;-1.30;99.90
38118;DHT22;23928;47.562;7.508;2022-12-11T14:03:59;-1.50;99.90
38118;DHT22;23928;47.562;7.508;2022-12-11T14:06:26;-1.30;99.90
38118;DHT22;23928;47.562;7.508;2022-12-11T14:08:55;-1.50;99.90
38118;DHT22;23928;47.562;7.508;2022-12-11T14:11:30;-1.50;99.90
38118;DHT22;23928;47.562;7.508;2022-12-11T14:14:00;-1.40;99.90
38118;DHT22;23928;47.562;7.508;2022-12-11T14:16:26;-1.50;99.90
38118;DHT22;23928;47.562;7.508;2022-12-11T14:18:55;-1.40;99.90
38118;DHT22;23928;47.562;7.508;2022-12-11T14:21:24;-1.30;99.90
38118;DHT22;23928;47.562;7.508;2022-12-11T14:23:57;-1.30;99.90
38118;DHT22;23928;47.562;7.508;2022-12-11T14:26:29;-1.30;99.90
38118;DHT22;23928;47.562;7.508;2022-12-11T14:28:55;-1.30;99.90
38118;DHT22;23928;47.562;7.508;2022-12-11T14:33:56;-1.30;99.90
38118;DHT22;23928;47.562;7.508;2022-12-11T14:36:23;-1.40;99.90
38118;DHT22;23928;47.562;7.508;2022-12-11T14:38:56;-1.50;99.90
38118;DHT22;23928;47.562;7.508;2022-12-11T14:41:34;-1.60;99.90
38118;DHT22;23928;47.562;7.508;2022-12-11T14:44:03;-1.60;99.90
38118;DHT22;23928;47.562;7.508;2022-12-11T14:49:02;-1.70;99.90
38118;DHT22;23928;47.562;7.508;2022-12-11T14:51:33;-1.70;99.90
38118;DHT22;23928;47.562;7.508;2022-12-11T14:54:00;-1.80;99.90
38118;DHT22;23928;47.562;7.508;2022-12-11T14:56:28;-1.80;99.90
38118;DHT22;23928;47.562;7.508;2022-12-11T14:59:06;-1.80;99.90
38118;DHT22;23928;47.562;7.508;2022-12-11T15:01:40;-1.90;99.90
38118;DHT22;23928;47.562;7.508;2022-12-11T15:06:45;-1.90;99.90
38118;DHT22;23928;47.562;7.508;2022-12-11T15:11:47;-2.00;99.90
38118;DHT22;23928;47.562;7.508;2022-12-11T15:14:17;-2.00;99.90
38118;DHT22;23928;47.562;7.508;2022-12-11T15:16:44;-2.10;99.90
38118;DHT22;23928;47.562;7.508;2022-12-11T15:19:27;-2.10;99.90
38118;DHT22;23928;47.562;7.508;2022-12-11T15:22:00;-2.10;99.90
38118;DHT22;23928;47.562;7.508;2022-12-11T15:24:37;-2.20;99.90
38118;DHT22;23928;47.562;7.508;2022-12-11T15:27:03;-2.30;99.90
38118;DHT22;23928;47.562;7.508;2022-12-11T15:29:37;-2.40;99.90
38118;DHT22;23928;47.562;7.508;2022-12-11T15:37:28;-2.40;99.90
38118;DHT22;23928;47.562;7.508;2022-12-11T15:39:56;-2.40;99.90
38118;DHT22;23928;47.562;7.508;2022-12-11T15:42:29;-2.50;99.90
38118;DHT22;23928;47.562;7.508;2022-12-11T15:44:55;-2.60;99.90
38118;DHT22;23928;47.562;7.508;2022-12-11T15:47:24;-2.60;99.90
38118;DHT22;23928;47.562;7.508;2022-12-11T15:49:57;-2.70;99.90
38118;DHT22;23928;47.562;7.508;2022-12-11T15:52:23;-2.80;99.90
38118;DHT22;23928;47.562;7.508;2022-12-11T15:54:49;-2.90;99.90
38118;DHT22;23928;47.562;7.508;2022-12-11T15:57:17;-2.90;99.90
38118;DHT22;23928;47.562;7.508;2022-12-11T15:59:44;-2.90;99.90
38118;DHT22;23928;47.562;7.508;2022-12-11T16:02:13;-3.00;99.90
38118;DHT22;23928;47.562;7.508;2022-12-11T16:04:39;-3.00;99.90
38118;DHT22;23928;47.562;7.508;2022-12-11T16:07:18;-3.00;99.90
38118;DHT22;23928;47.562;7.508;2022-12-11T16:09:45;-3.00;99.90
38118;DHT22;23928;47.562;7.508;2022-12-11T16:12:11;-3.10;99.90
38118;DHT22;23928;47.562;7.508;2022-12-11T16:14:39;-3.10;99.90
38118;DHT22;23928;47.562;7.508;2022-12-11T16:17:05;-3.20;99.90
38118;DHT22;23928;47.562;7.508;2022-12-11T16:19:32;-3.30;99.90
38118;DHT22;23928;47.562;7.508;2022-12-11T16:21:57;-3.40;99.90
38118;DHT22;23928;47.562;7.508;2022-12-11T16:24:23;-3.40;99.90
38118;DHT22;23928;47.562;7.508;2022-12-11T16:26:49;-3.50;99.90
38118;DHT22;23928;47.562;7.508;2022-12-11T16:29:14;-3.50;99.90
38118;DHT22;23928;47.562;7.508;2022-12-11T16:31:40;-3.50;99.90
38118;DHT22;23928;47.562;7.508;2022-12-11T16:34:05;-3.60;99.90
38118;DHT22;23928;47.562;7.508;2022-12-11T16:36:31;-3.60;99.90
38118;DHT22;23928;47.562;7.508;2022-12-11T16:38:56;-3.60;99.90
38118;DHT22;23928;47.562;7.508;2022-12-11T16:41:22;-3.70;99.90
38118;DHT22;23928;47.562;7.508;2022-12-11T16:43:48;-3.80;99.90
38118;DHT22;23928;47.562;7.508;2022-12-11T16:46:23;-3.90;99.90
38118;DHT22;23928;47.562;7.508;2022-12-11T16:48:49;-3.90;99.90
38118;DHT22;23928;47.562;7.508;2022-12-11T16:51:15;-3.90;99.90
38118;DHT22;23928;47.562;7.508;2022-12-11T16:53:40;-3.90;99.90
38118;DHT22;23928;47.562;7.508;2022-12-11T16:56:07;-3.90;99.90
38118;DHT22;23928;47.562;7.508;2022-12-11T16:58:33;-4.00;99.90
38118;DHT22;23928;47.562;7.508;2022-12-11T17:00:58;-4.20;99.90
38118;DHT22;23928;47.562;7.508;2022-12-11T17:03:28;-4.20;99.90
38118;DHT22;23928;47.562;7.508;2022-12-11T17:05:54;-4.20;99.90
38118;DHT22;23928;47.562;7.508;2022-12-11T17:08:20;-4.20;99.90
38118;DHT22;23928;47.562;7.508;2022-12-11T17:10:46;-4.20;99.90
38118;DHT22;23928;47.562;7.508;2022-12-11T17:13:12;-4.20;99.90
38118;DHT22;23928;47.562;7.508;2022-12-11T17:15:41;-4.20;99.90
38118;DHT22;23928;47.562;7.508;2022-12-11T17:18:08;-4.20;99.90
38118;DHT22;23928;47.562;7.508;2022-12-11T17:20:38;-4.30;99.90
38118;DHT22;23928;47.562;7.508;2022-12-11T17:23:03;-4.30;99.90
38118;DHT22;23928;47.562;7.508;2022-12-11T17:25:29;-4.30;99.90
38118;DHT22;23928;47.562;7.508;2022-12-11T17:27:54;-4.30;99.90
38118;DHT22;23928;47.562;7.508;2022-12-11T17:30:20;-4.30;99.90
38118;DHT22;23928;47.562;7.508;2022-12-11T17:32:47;-4.30;99.90
38118;DHT22;23928;47.562;7.508;2022-12-11T17:35:13;-4.30;99.90
38118;DHT22;23928;47.562;7.508;2022-12-11T17:37:39;-4.50;99.90
38118;DHT22;23928;47.562;7.508;2022-12-11T17:40:05;-4.50;99.90